createdAt,value
2019-03-03T00:01:27.445Z,31.23
2019-03-03T00:03:58.184Z,31.12
2019-03-03T00:06:28.814Z,30.68
2019-03-03T00:08:59.456Z,29.48
2019-03-03T00:11:30.085Z,32.17
2019-03-03T00:14:00.842Z,30.43
2019-03-03T00:16:31.550Z,29.70
2019-03-03T00:19:02.037Z,31.77
2019-03-03T00:21:32.721Z,30.10
2019-03-03T00:24:03.200Z,29.95
2019-03-03T00:26:33.889Z,29.00
2019-03-03T00:29:04.509Z,29.55
2019-03-03T00:31:36.827Z,30.82
2019-03-03T00:34:07.441Z,29.40
2019-03-03T00:36:55.871Z,28.85
2019-03-03T00:39:46.570Z,28.05
2019-03-03T00:42:21.299Z,27.45
2019-03-03T00:45:09.647Z,26.05
2019-03-03T00:47:58.402Z,25.60
2019-03-03T00:50:46.039Z,26.85
2019-03-03T00:53:18.209Z,29.23
2019-03-03T00:55:50.380Z,30.45
2019-03-03T00:58:28.480Z,28.73
2019-03-03T01:01:09.874Z,28.80
2019-03-03T01:03:50.848Z,28.12
2019-03-03T01:06:30.288Z,30.25
2019-03-03T01:09:05.318Z,27.62
2019-03-03T01:11:42.166Z,30.00
2019-03-03T01:14:29.834Z,27.93
2019-03-03T01:17:11.119Z,26.87
2019-03-03T01:19:43.284Z,27.75
2019-03-03T01:22:18.222Z,29.40
2019-03-03T01:24:57.494Z,31.40
2019-03-03T01:27:28.490Z,29.42
2019-03-03T01:29:58.984Z,28.23
2019-03-03T01:32:29.666Z,25.70
2019-03-03T01:35:00.326Z,26.10
2019-03-03T01:37:30.919Z,24.40
2019-03-03T01:40:01.462Z,25.92
2019-03-03T01:42:32.289Z,25.90
2019-03-03T01:45:02.927Z,25.32
2019-03-03T01:47:35.237Z,28.65
2019-03-03T01:50:08.967Z,26.27
2019-03-03T01:52:39.743Z,26.60
2019-03-03T01:55:11.869Z,28.50
2019-03-03T01:57:42.439Z,29.35
2019-03-03T02:00:21.667Z,30.30
2019-03-03T02:02:52.163Z,29.63
2019-03-03T02:05:22.730Z,26.93
2019-03-03T02:07:54.290Z,28.42
2019-03-03T02:10:25.586Z,29.12
2019-03-03T02:12:57.195Z,28.23
2019-03-03T02:15:27.823Z,28.75
2019-03-03T02:17:58.451Z,30.08
2019-03-03T02:20:28.983Z,31.20
2019-03-03T02:22:59.627Z,29.12
2019-03-03T02:25:30.308Z,27.90
2019-03-03T02:28:00.881Z,28.62
2019-03-03T02:30:31.430Z,28.45
2019-03-03T02:33:02.058Z,28.03
2019-03-03T02:35:32.554Z,29.57
2019-03-03T02:38:03.114Z,29.32
2019-03-03T02:40:33.802Z,30.90
2019-03-03T02:43:04.484Z,29.85
2019-03-03T02:45:35.015Z,31.55
2019-03-03T02:48:05.546Z,32.03
2019-03-03T02:50:36.092Z,31.37
2019-03-03T02:53:06.652Z,31.67
2019-03-03T02:55:37.239Z,32.73
2019-03-03T02:58:07.863Z,33.48
2019-03-03T03:00:40.445Z,34.13
2019-03-03T03:03:12.649Z,34.90
2019-03-03T03:06:00.351Z,35.83
2019-03-03T03:08:32.525Z,34.60
2019-03-03T03:11:04.689Z,32.65
2019-03-03T03:13:36.964Z,32.73
2019-03-03T03:16:25.712Z,32.45
2019-03-03T03:19:10.377Z,33.60
2019-03-03T03:21:51.177Z,31.87
2019-03-03T03:24:26.084Z,28.65
2019-03-03T03:27:07.097Z,27.90
2019-03-03T03:29:39.592Z,28.10
2019-03-03T03:32:21.726Z,30.57
2019-03-03T03:34:58.410Z,26.40
2019-03-03T03:37:30.539Z,26.05
2019-03-03T03:40:08.995Z,27.13
2019-03-03T03:42:50.277Z,28.30
2019-03-03T03:45:24.935Z,28.47
2019-03-03T03:48:13.666Z,26.20
2019-03-03T03:50:58.028Z,26.55
2019-03-03T03:53:30.188Z,27.20
2019-03-03T03:56:08.193Z,28.38
2019-03-03T03:58:40.477Z,26.33
2019-03-03T04:01:12.627Z,25.08
2019-03-03T04:03:47.984Z,27.95
2019-03-03T04:06:20.139Z,31.20
2019-03-03T04:08:52.273Z,27.93
2019-03-03T04:11:26.946Z,26.60
2019-03-03T04:14:08.321Z,26.30
2019-03-03T04:16:46.741Z,26.93
2019-03-03T04:19:21.878Z,26.57
2019-03-03T04:22:03.254Z,26.45
2019-03-03T04:24:41.479Z,26.23
2019-03-03T04:27:20.604Z,26.05
2019-03-03T04:29:55.546Z,25.70
2019-03-03T04:32:30.780Z,25.97
2019-03-03T04:35:10.012Z,23.55
2019-03-03T04:37:42.144Z,24.37
2019-03-03T04:40:30.609Z,24.87
2019-03-03T04:43:09.770Z,24.30
2019-03-03T04:46:00.243Z,24.82
2019-03-03T04:48:38.377Z,25.32
2019-03-03T04:51:28.877Z,23.55
2019-03-03T04:54:04.212Z,23.22
2019-03-03T04:56:36.345Z,24.85
2019-03-03T04:59:14.490Z,24.37
2019-03-03T05:01:46.667Z,24.18
2019-03-03T05:04:24.404Z,22.60
2019-03-03T05:07:12.813Z,22.00
2019-03-03T05:09:44.986Z,22.87
2019-03-03T05:12:34.660Z,22.70
2019-03-03T05:15:22.187Z,22.00
2019-03-03T05:17:54.364Z,25.10
2019-03-03T05:20:24.853Z,27.95
2019-03-03T05:22:55.429Z,28.98
2019-03-03T05:25:25.952Z,33.42
2019-03-03T05:27:56.484Z,33.88
2019-03-03T05:30:26.969Z,33.50
2019-03-03T05:32:57.546Z,32.60
2019-03-03T05:35:28.077Z,31.40
2019-03-03T05:37:58.704Z,28.32
2019-03-03T05:40:29.462Z,27.58
2019-03-03T05:43:00.014Z,29.20
2019-03-03T05:45:30.603Z,29.72
2019-03-03T05:48:01.135Z,30.25
2019-03-03T05:50:31.761Z,29.23
2019-03-03T05:53:02.954Z,27.25
2019-03-03T05:55:34.262Z,25.32
2019-03-03T05:58:04.893Z,23.98
2019-03-03T06:00:35.630Z,25.45
2019-03-03T06:03:06.115Z,26.42
2019-03-03T06:05:36.691Z,27.00
2019-03-03T06:08:07.221Z,27.48
2019-03-03T06:10:37.853Z,29.60
2019-03-03T06:13:08.335Z,28.23
2019-03-03T06:15:38.910Z,26.77
2019-03-03T06:18:09.442Z,22.90
2019-03-03T06:20:40.093Z,29.18
2019-03-03T06:23:10.567Z,28.20
2019-03-03T06:25:41.143Z,29.30
2019-03-03T06:28:11.672Z,22.98
2019-03-03T06:30:42.302Z,22.67
2019-03-03T06:33:12.859Z,22.93
2019-03-03T06:35:43.364Z,24.82
2019-03-03T06:38:13.991Z,24.40
2019-03-03T06:40:44.523Z,22.58
2019-03-03T06:43:15.167Z,22.87
2019-03-03T06:45:45.696Z,22.32
2019-03-03T06:48:16.420Z,22.77
2019-03-03T06:50:47.258Z,24.12
2019-03-03T06:53:17.788Z,24.85
2019-03-03T06:55:48.320Z,25.72
2019-03-03T06:58:18.964Z,26.27
2019-03-03T07:00:50.513Z,23.73
2019-03-03T07:03:21.041Z,24.15
2019-03-03T07:05:51.540Z,26.82
2019-03-03T07:08:22.101Z,26.80
2019-03-03T07:10:52.588Z,24.95
2019-03-03T07:13:23.163Z,25.55
2019-03-03T07:15:53.722Z,21.77
2019-03-03T07:18:24.230Z,21.60
2019-03-03T07:20:54.732Z,21.48
2019-03-03T07:23:25.384Z,23.12
2019-03-03T07:25:55.920Z,39.98
2019-03-03T07:28:26.556Z,26.65
2019-03-03T07:30:57.045Z,28.42
2019-03-03T07:33:29.250Z,27.05
2019-03-03T07:35:59.783Z,24.40
2019-03-03T07:38:30.409Z,22.55
2019-03-03T07:41:00.940Z,25.02
2019-03-03T07:43:32.085Z,23.92
2019-03-03T07:46:02.736Z,23.70
2019-03-03T07:48:33.285Z,24.45
2019-03-03T07:51:03.887Z,23.65
2019-03-03T07:53:34.416Z,27.73
2019-03-03T07:56:04.951Z,148.72
2019-03-03T07:58:35.579Z,154.75
2019-03-03T08:01:06.109Z,121.92
2019-03-03T08:03:36.596Z,93.12
2019-03-03T08:06:07.175Z,142.57
2019-03-03T08:08:37.698Z,90.97
2019-03-03T08:11:08.338Z,33.33
2019-03-03T08:13:38.896Z,33.30
2019-03-03T08:16:10.916Z,66.10
2019-03-03T08:18:42.489Z,71.80
2019-03-03T08:21:13.018Z,40.43
2019-03-03T08:23:43.573Z,49.50
2019-03-03T08:26:14.177Z,41.25
2019-03-03T08:28:44.736Z,33.67
2019-03-03T08:31:15.343Z,51.35
2019-03-03T08:33:45.977Z,35.08
2019-03-03T08:36:16.508Z,35.52
2019-03-03T08:38:47.136Z,35.52
2019-03-03T08:41:17.671Z,56.35
2019-03-03T08:43:59.062Z,49.85
2019-03-03T08:46:34.091Z,68.52
2019-03-03T08:49:13.213Z,49.08
2019-03-03T08:52:04.027Z,51.20
2019-03-03T08:54:42.265Z,46.45
2019-03-03T08:57:14.468Z,40.23
2019-03-03T08:59:55.697Z,22.00
2019-03-03T09:02:44.352Z,22.75
2019-03-03T09:05:19.597Z,33.63
2019-03-03T09:07:51.713Z,23.12
2019-03-03T09:10:36.220Z,23.62
2019-03-03T09:13:17.602Z,21.33
2019-03-03T09:15:52.531Z,18.82
2019-03-03T09:18:40.783Z,21.93
2019-03-03T09:21:26.363Z,18.60
2019-03-03T09:23:58.640Z,26.52
2019-03-03T09:26:48.789Z,29.65
2019-03-03T09:29:35.935Z,31.87
2019-03-03T09:32:10.983Z,18.77
2019-03-03T09:35:01.591Z,13.10
2019-03-03T09:37:33.858Z,12.63
2019-03-03T09:40:24.966Z,14.40
2019-03-03T09:43:09.320Z,18.15
2019-03-03T09:45:47.337Z,16.52
2019-03-03T09:48:34.552Z,14.03
2019-03-03T09:51:06.715Z,14.70
2019-03-03T09:53:55.286Z,13.85
2019-03-03T09:56:36.351Z,10.58
2019-03-03T09:59:17.435Z,10.60
2019-03-03T10:02:06.187Z,10.45
2019-03-03T10:04:44.131Z,9.58
2019-03-03T10:07:34.590Z,8.88
2019-03-03T10:10:10.133Z,10.08
2019-03-03T10:12:45.271Z,9.15
2019-03-03T10:15:33.900Z,8.80
2019-03-03T10:18:06.104Z,9.00
2019-03-03T10:20:38.270Z,9.38
2019-03-03T10:23:22.722Z,11.93
2019-03-03T10:26:12.917Z,11.78
2019-03-03T10:28:57.379Z,8.20
2019-03-03T10:31:32.616Z,9.20
2019-03-03T10:34:16.570Z,7.45
2019-03-03T10:36:54.638Z,297.05
2019-03-03T10:39:29.809Z,21.68
2019-03-03T10:42:14.164Z,91.08
2019-03-03T10:44:46.347Z,320.70
2019-03-03T10:47:34.588Z,186.25
2019-03-03T10:50:09.827Z,80.45
2019-03-03T10:52:44.854Z,510.97
2019-03-03T10:55:26.040Z,603.33
2019-03-03T10:58:14.597Z,368.42
2019-03-03T11:00:59.149Z,356.87
2019-03-03T11:03:49.547Z,242.62
2019-03-03T11:06:33.765Z,129.72
2019-03-03T11:09:07.197Z,92.45
2019-03-03T11:11:42.337Z,115.00
2019-03-03T11:14:32.839Z,48.25
2019-03-03T11:17:04.999Z,57.55
2019-03-03T11:19:43.519Z,44.90
2019-03-03T11:22:24.912Z,137.72
2019-03-03T11:25:09.282Z,181.12
2019-03-03T11:27:41.528Z,148.57
2019-03-03T11:30:33.631Z,253.60
2019-03-03T11:33:11.786Z,55.45
2019-03-03T11:35:56.337Z,93.62
2019-03-03T11:38:31.331Z,51.33
2019-03-03T11:41:16.750Z,51.90
2019-03-03T11:44:00.964Z,53.52
2019-03-03T11:46:51.513Z,13.30
2019-03-03T11:49:26.743Z,44.23
2019-03-03T11:51:59.021Z,17.77
2019-03-03T11:54:33.759Z,30.23
2019-03-03T11:57:14.928Z,21.52
2019-03-03T11:59:50.226Z,11.38
2019-03-03T12:02:32.688Z,30.45
2019-03-03T12:05:10.684Z,10.82
2019-03-03T12:07:45.616Z,14.45
2019-03-03T12:10:34.274Z,8.03
2019-03-03T12:13:09.293Z,17.67
2019-03-03T12:15:57.657Z,6.58
2019-03-03T12:18:29.850Z,11.65
2019-03-03T12:21:07.729Z,15.90
2019-03-03T12:23:40.100Z,9.68
2019-03-03T12:26:28.450Z,13.83
2019-03-03T12:29:12.496Z,7.20
2019-03-03T12:31:47.734Z,9.23
2019-03-03T12:34:29.018Z,5.37
2019-03-03T12:37:01.196Z,15.38
2019-03-03T12:39:49.551Z,9.83
2019-03-03T12:42:33.678Z,32.98
2019-03-03T12:45:11.898Z,89.72
2019-03-03T12:48:00.459Z,68.35
2019-03-03T12:50:32.665Z,127.62
2019-03-03T12:53:18.144Z,60.15
2019-03-03T12:56:05.424Z,133.22
2019-03-03T12:58:38.990Z,86.22
2019-03-03T13:01:26.455Z,54.90
2019-03-03T13:04:14.967Z,44.60
2019-03-03T13:06:47.174Z,10.80
2019-03-03T13:09:19.353Z,97.75
2019-03-03T13:11:51.481Z,41.70
2019-03-03T13:14:23.650Z,37.80
2019-03-03T13:17:01.895Z,184.57
2019-03-03T13:19:37.028Z,26.77
2019-03-03T13:22:09.152Z,13.20
2019-03-03T13:24:47.210Z,73.25
2019-03-03T13:27:37.809Z,15.78
2019-03-03T13:30:13.364Z,40.25
2019-03-03T13:32:45.537Z,100.18
2019-03-03T13:35:20.767Z,59.20
2019-03-03T13:37:58.883Z,47.50
2019-03-03T13:40:46.103Z,30.02
2019-03-03T13:43:16.624Z,49.75
2019-03-03T13:45:47.155Z,28.05
2019-03-03T13:48:17.684Z,8.65
2019-03-03T13:50:48.170Z,10.23
2019-03-03T13:53:18.750Z,23.00
2019-03-03T13:55:49.396Z,47.38
2019-03-03T13:58:19.922Z,62.58
2019-03-03T14:00:50.452Z,45.30
2019-03-03T14:03:20.982Z,16.97
2019-03-03T14:05:51.473Z,47.15
2019-03-03T14:08:22.138Z,19.98
2019-03-03T14:10:52.879Z,44.73
2019-03-03T14:13:23.418Z,23.92
2019-03-03T14:15:53.896Z,17.80
2019-03-03T14:18:25.488Z,20.57
2019-03-03T14:20:55.964Z,19.65
2019-03-03T14:23:26.550Z,16.48
2019-03-03T14:25:57.086Z,14.23
2019-03-03T14:28:27.709Z,17.42
2019-03-03T14:30:58.202Z,8.75
2019-03-03T14:33:28.928Z,11.85
2019-03-03T14:35:59.612Z,10.88
2019-03-03T14:38:30.092Z,9.58
2019-03-03T14:41:00.669Z,7.70
2019-03-03T14:43:31.372Z,8.73
2019-03-03T14:46:01.945Z,13.43
2019-03-03T14:48:32.424Z,9.98
2019-03-03T14:51:02.999Z,13.20
2019-03-03T14:53:34.758Z,17.25
2019-03-03T14:56:05.388Z,9.98
2019-03-03T14:58:36.989Z,44.13
2019-03-03T15:01:07.678Z,38.65
2019-03-03T15:03:38.319Z,11.33
2019-03-03T15:06:08.849Z,12.35
2019-03-03T15:08:39.476Z,16.25
2019-03-03T15:11:10.109Z,8.03
2019-03-03T15:13:40.583Z,11.75
2019-03-03T15:16:11.171Z,90.45
2019-03-03T15:18:41.808Z,20.65
2019-03-03T15:21:12.442Z,38.73
2019-03-03T15:23:43.122Z,20.52
2019-03-03T15:26:13.708Z,20.30
2019-03-03T15:28:44.336Z,27.82
2019-03-03T15:31:14.910Z,19.98
2019-03-03T15:33:45.496Z,16.05
2019-03-03T15:36:16.139Z,15.80
2019-03-03T15:38:46.764Z,16.25
2019-03-03T15:41:17.297Z,22.30
2019-03-03T15:43:47.868Z,16.37
2019-03-03T15:46:18.347Z,39.03
2019-03-03T15:48:48.888Z,25.95
2019-03-03T15:51:20.033Z,28.25
2019-03-03T15:53:50.662Z,31.33
2019-03-03T15:56:21.153Z,34.60
2019-03-03T15:58:55.554Z,49.25
2019-03-03T16:01:23.997Z,57.58
2019-03-03T16:03:54.530Z,79.20
2019-03-03T16:06:25.060Z,126.42
2019-03-03T16:08:57.041Z,100.78
2019-03-03T16:11:27.534Z,98.55
2019-03-03T16:13:58.188Z,92.60
2019-03-03T16:16:28.717Z,70.78
2019-03-03T16:18:59.247Z,50.50
2019-03-03T16:21:29.875Z,45.00
2019-03-03T16:24:00.385Z,55.48
2019-03-03T16:26:30.935Z,53.65
2019-03-03T16:29:01.675Z,34.73
2019-03-03T16:31:32.304Z,69.70
2019-03-03T16:34:02.793Z,90.40
2019-03-03T16:36:33.366Z,48.50
2019-03-03T16:39:04.310Z,33.08
2019-03-03T16:41:36.472Z,61.15
2019-03-03T16:44:07.108Z,79.90
2019-03-03T16:46:37.850Z,177.75
2019-03-03T16:49:08.342Z,59.63
2019-03-03T16:51:39.008Z,71.65
2019-03-03T16:54:09.543Z,66.55
2019-03-03T16:56:40.043Z,86.08
2019-03-03T16:59:10.596Z,39.20
2019-03-03T17:01:41.129Z,66.30
2019-03-03T17:04:11.768Z,66.70
2019-03-03T17:06:42.292Z,54.85
2019-03-03T17:09:12.831Z,67.65
2019-03-03T17:11:43.457Z,27.17
2019-03-03T17:14:13.986Z,31.42
2019-03-03T17:16:44.521Z,53.75
2019-03-03T17:19:15.051Z,60.78
2019-03-03T17:21:45.651Z,41.20
2019-03-03T17:24:21.130Z,35.63
2019-03-03T17:26:53.090Z,36.93
2019-03-03T17:29:23.625Z,49.23
2019-03-03T17:31:54.119Z,25.20
2019-03-03T17:34:24.681Z,20.85
2019-03-03T17:36:55.318Z,22.65
2019-03-03T17:39:26.066Z,30.40
2019-03-03T17:41:56.580Z,31.60
2019-03-03T17:44:27.210Z,35.00
2019-03-03T17:46:57.701Z,21.17
2019-03-03T17:49:28.384Z,918.90
2019-03-03T17:51:59.017Z,821.67
2019-03-03T17:54:29.542Z,752.17
2019-03-03T17:57:00.079Z,344.37
2019-03-03T17:59:30.604Z,240.07
2019-03-03T18:02:01.344Z,164.85
2019-03-03T18:04:31.972Z,167.50
2019-03-03T18:07:02.605Z,223.25
2019-03-03T18:09:33.133Z,343.60
2019-03-03T18:12:03.663Z,176.22
2019-03-03T18:14:34.191Z,182.30
2019-03-03T18:17:04.727Z,189.28
2019-03-03T18:19:35.562Z,98.12
2019-03-03T18:22:06.096Z,202.32
2019-03-03T18:24:36.732Z,149.45
2019-03-03T18:27:07.274Z,45.70
2019-03-03T18:29:37.795Z,113.47
2019-03-03T18:32:09.049Z,39.15
2019-03-03T18:34:39.995Z,32.38
2019-03-03T18:37:10.707Z,35.92
2019-03-03T18:39:41.338Z,29.60
2019-03-03T18:42:12.206Z,24.57
2019-03-03T18:44:42.765Z,37.35
2019-03-03T18:47:13.346Z,40.75
2019-03-03T18:49:43.875Z,24.35
2019-03-03T18:52:14.505Z,36.58
2019-03-03T18:54:45.037Z,39.73
2019-03-03T18:57:15.780Z,23.00
2019-03-03T18:59:46.310Z,20.32
2019-03-03T19:02:16.944Z,13.98
2019-03-03T19:04:47.431Z,16.27
2019-03-03T19:07:17.996Z,15.88
2019-03-03T19:09:48.738Z,12.80
2019-03-03T19:12:19.266Z,12.73
2019-03-03T19:14:49.795Z,18.15
2019-03-03T19:17:20.329Z,18.12
2019-03-03T19:19:50.859Z,14.90
2019-03-03T19:22:21.387Z,25.77
2019-03-03T19:24:51.919Z,17.12
2019-03-03T19:27:22.645Z,17.65
2019-03-03T19:29:53.179Z,56.15
2019-03-03T19:32:23.665Z,78.05
2019-03-03T19:34:54.237Z,44.65
2019-03-03T19:37:24.767Z,75.22
2019-03-03T19:39:55.261Z,78.20
2019-03-03T19:42:25.827Z,26.77
2019-03-03T19:44:56.468Z,22.62
2019-03-03T19:47:26.963Z,16.45
2019-03-03T19:49:57.629Z,18.57
2019-03-03T19:52:28.258Z,15.72
2019-03-03T19:54:58.822Z,17.92
2019-03-03T19:57:29.413Z,21.62
2019-03-03T19:59:59.962Z,18.05
2019-03-03T20:02:30.553Z,21.75
2019-03-03T20:05:01.123Z,14.10
2019-03-03T20:07:31.752Z,13.18
2019-03-03T20:10:02.389Z,18.45
2019-03-03T20:12:33.226Z,29.02
2019-03-03T20:15:05.600Z,18.62
2019-03-03T20:17:36.129Z,13.58
2019-03-03T20:20:17.611Z,15.90
2019-03-03T20:22:48.101Z,12.35
2019-03-03T20:25:18.788Z,14.03
2019-03-03T20:27:49.408Z,9.58
2019-03-03T20:30:23.987Z,9.00
2019-03-03T20:32:54.570Z,11.55
2019-03-03T20:35:25.204Z,62.10
2019-03-03T20:37:55.928Z,16.52
2019-03-03T20:40:27.458Z,14.15
2019-03-03T20:42:58.030Z,13.58
2019-03-03T20:45:29.553Z,13.32
2019-03-03T20:48:00.110Z,14.70
2019-03-03T20:50:30.636Z,12.70
2019-03-03T20:53:01.122Z,11.55
2019-03-03T20:55:32.620Z,12.23
2019-03-03T20:58:03.106Z,10.15
2019-03-03T21:00:34.603Z,9.95
2019-03-03T21:03:05.088Z,11.43
2019-03-03T21:05:35.764Z,12.28
2019-03-03T21:08:06.399Z,12.35
2019-03-03T21:10:37.032Z,11.73
2019-03-03T21:13:07.569Z,10.90
2019-03-03T21:15:38.186Z,11.63
2019-03-03T21:18:08.720Z,10.93
2019-03-03T21:20:39.359Z,8.98
2019-03-03T21:23:09.923Z,7.17
2019-03-03T21:25:40.418Z,8.55
2019-03-03T21:28:11.048Z,6.37
2019-03-03T21:30:41.580Z,6.87
2019-03-03T21:33:12.111Z,6.50
2019-03-03T21:35:42.741Z,7.72
2019-03-03T21:38:13.269Z,6.20
2019-03-03T21:40:43.798Z,7.17
2019-03-03T21:43:14.330Z,7.30
2019-03-03T21:45:44.885Z,7.67
2019-03-03T21:48:15.500Z,8.58
2019-03-03T21:50:46.129Z,15.18
2019-03-03T21:53:16.660Z,17.00
2019-03-03T21:55:47.192Z,8.85
2019-03-03T21:58:18.853Z,10.48
2019-03-03T22:00:49.337Z,8.50
2019-03-03T22:03:19.910Z,8.05
2019-03-03T22:05:50.543Z,6.47
2019-03-03T22:08:21.282Z,4.80
2019-03-03T22:10:51.767Z,7.60
2019-03-03T22:13:22.254Z,11.10
2019-03-03T22:15:52.738Z,12.90
2019-03-03T22:18:23.403Z,14.05
2019-03-03T22:20:53.933Z,13.72
2019-03-03T22:23:25.627Z,20.02
2019-03-03T22:25:56.222Z,17.32
2019-03-03T22:28:26.754Z,15.05
2019-03-03T22:30:57.284Z,13.90
2019-03-03T22:33:27.816Z,8.88
2019-03-03T22:35:58.347Z,11.97
2019-03-03T22:38:28.880Z,10.85
2019-03-03T22:40:59.405Z,16.48
2019-03-03T22:43:29.938Z,13.62
2019-03-03T22:46:00.467Z,21.62
2019-03-03T22:48:30.998Z,18.80
2019-03-03T22:51:01.628Z,12.30
2019-03-03T22:53:32.156Z,19.07
2019-03-03T22:56:02.688Z,32.58
2019-03-03T22:58:33.169Z,23.65
2019-03-03T23:01:06.922Z,16.10
2019-03-03T23:03:43.596Z,12.20
2019-03-03T23:06:26.103Z,9.93
2019-03-03T23:09:14.975Z,10.50
2019-03-03T23:11:57.787Z,6.60
2019-03-03T23:14:34.768Z,10.90
2019-03-03T23:17:25.574Z,56.18
2019-03-03T23:20:11.565Z,15.10
2019-03-03T23:23:00.313Z,6.28
2019-03-03T23:25:50.574Z,5.12
2019-03-03T23:28:21.360Z,4.70
2019-03-03T23:30:53.218Z,4.95
2019-03-03T23:33:23.850Z,5.22
2019-03-03T23:35:54.318Z,4.58
2019-03-03T23:38:24.906Z,4.65
2019-03-03T23:40:56.466Z,4.62
2019-03-03T23:43:27.002Z,4.70
2019-03-03T23:45:57.529Z,5.05
2019-03-03T23:48:28.060Z,5.05
2019-03-03T23:50:58.589Z,4.45
2019-03-03T23:53:29.125Z,4.47
2019-03-03T23:55:59.649Z,4.25
2019-03-03T23:58:31.410Z,4.25
